LFRGLFOP

Guest
Details From LFRG - Deauville Saint Gatien
To LFOP - Rouen Vallee de la Seine
Flight Number -
Tags generated
Created
Modified
Stats Distance 41 nm / 75 km
Max Altitude 2,300 ft / 701 m
Waypoints 3
Social Downloads 3
Likes 0
Share VATSIM

Download

Looking for another format? Having issues loading an existing format? Contact us
Advertisement - Login to hide

Notes

Basic altitude profile: - Ascent Rate: 2500ft/min - Ascent Speed: 250kts - Cruise Altitude: 35000ft - Cruise Speed: 420kts - Descent Rate: 1500ft/min - Descent Speed: 250kts Options: - Use NATs: yes - Use PACOTS: yes - Use low airways: yes - Use high airways: yes

Route

LFRG KEREX LFOP

ID Type Via Altitude Latitude Longitude Leg Dist Tot Dist Heading (true) Name
O LFRG APT - 0 ft / 0 m 49.36530˚ 0.15432˚ - 0 nm - Deauville Saint Gatien
KEREX FIX - 2,300 ft / 701 m 49.32661˚ 0.91314˚ 29 nm 29 nm 94° / 95° -
O LFOP APT - 0 ft / 0 m 49.38521˚ 1.17619˚ 10 nm 40 nm 71° / 71° Rouen Vallee de la Seine

Altitude Profile

Advertisement - Login to hide

LFRG

Details ICAO LFRG (DOL)
Name Deauville Saint Gatien
Region France
Timezone Europe/Paris (UTC+1.0)
Stats Elevation 479 ft / 146 m (AMSL)
Location 49.365296° 0.154324°
Runways 1
Magnetic Variation 0.141° W

METAR

LFRG 152300Z AUTO 01009KT 330V050 9999 BKN019 BKN028 BKN037 06/03 Q1009

Decode

TAF

Not found

Departure Runways

ID Width Length Bearing (true) Bearing (mag) Surface Threshold Offset Overrun Length
12 148 ft / 45 m 8,344 ft / 2,543 m 117.22° 117.36° Asphalt 1,476 ft / 450 m 0 ft / 0 m
30 148 ft / 45 m 8,344 ft / 2,543 m 297.25° 297.39° Asphalt 1,378 ft / 420 m 0 ft / 0 m

LFOP

Details ICAO LFOP (URO)
Name Rouen Vallee de la Seine
Region France
Timezone Europe/Paris (UTC+1.0)
Stats Elevation 512 ft / 156 m (AMSL)
Location 49.385211° 1.176192°
Runways 1
Magnetic Variation 0.184° E

METAR

LFOP 152300Z AUTO 32007KT 8000 -RA BKN015 BKN021 OVC040 04/03 Q1007

Decode

TAF

TAF TAF LFOP 152102Z 1521/1618 CNL

Decode

Destination Runways

ID Width Length Bearing (true) Bearing (mag) Surface Threshold Offset Overrun Length
04 148 ft / 45 m 5,577 ft / 1,700 m 41.28° 41.10° Asphalt 0 ft / 0 m 0 ft / 0 m
22 148 ft / 45 m 5,577 ft / 1,700 m 221.29° 221.11° Asphalt 0 ft / 0 m 0 ft / 0 m

Approach Navaids

Runway Type Ident Frequency Range Bearing (true) Bearing (mag) Slope Elevation
22 Localiser RN 110.50 MHz 18 nm / 33 km 221.27° 221.09° - 512 ft / 156 m (AMSL)
22 Glidescope RN 110.50 MHz 10 nm / 19 km 221.28° 221.10° 3.00° 512 ft / 156 m (AMSL)
22 DME RN 110.50 MHz 18 nm / 33 km - - - 571 ft / 174 m (AMSL)